sensor_id;sensor_type;location;lat;lon;timestamp;temperature;humidity
23755;DHT22;12057;52.042;6.830;2022-10-31T00:04:40;14.20;99.90
23755;DHT22;12057;52.042;6.830;2022-10-31T00:09:40;14.10;99.90
23755;DHT22;12057;52.042;6.830;2022-10-31T00:14:41;14.10;99.90
23755;DHT22;12057;52.042;6.830;2022-10-31T00:19:42;14.00;99.90
23755;DHT22;12057;52.042;6.830;2022-10-31T00:24:43;14.00;99.90
23755;DHT22;12057;52.042;6.830;2022-10-31T00:29:43;13.90;99.90
23755;DHT22;12057;52.042;6.830;2022-10-31T00:34:44;13.90;99.90
23755;DHT22;12057;52.042;6.830;2022-10-31T00:39:45;13.80;99.90
23755;DHT22;12057;52.042;6.830;2022-10-31T00:44:46;13.80;99.90
23755;DHT22;12057;52.042;6.830;2022-10-31T00:49:46;13.70;99.90
23755;DHT22;12057;52.042;6.830;2022-10-31T00:54:47;13.70;99.90
23755;DHT22;12057;52.042;6.830;2022-10-31T00:59:48;13.70;99.90
23755;DHT22;12057;52.042;6.830;2022-10-31T01:04:48;13.70;99.90
23755;DHT22;12057;52.042;6.830;2022-10-31T01:09:49;13.70;99.90
23755;DHT22;12057;52.042;6.830;2022-10-31T01:14:50;13.70;99.90
23755;DHT22;12057;52.042;6.830;2022-10-31T01:19:51;13.70;99.90
23755;DHT22;12057;52.042;6.830;2022-10-31T01:24:51;13.70;99.90
23755;DHT22;12057;52.042;6.830;2022-10-31T01:29:52;13.60;99.90
23755;DHT22;12057;52.042;6.830;2022-10-31T01:34:53;13.50;99.90
23755;DHT22;12057;52.042;6.830;2022-10-31T01:39:54;13.40;99.90
23755;DHT22;12057;52.042;6.830;2022-10-31T01:45:01;13.30;99.90
23755;DHT22;12057;52.042;6.830;2022-10-31T01:50:09;13.20;99.90
23755;DHT22;12057;52.042;6.830;2022-10-31T02:00:15;13.10;99.90
23755;DHT22;12057;52.042;6.830;2022-10-31T02:05:20;13.00;99.90
23755;DHT22;12057;52.042;6.830;2022-10-31T02:10:23;13.00;99.90
23755;DHT22;12057;52.042;6.830;2022-10-31T02:15:24;13.00;99.90
23755;DHT22;12057;52.042;6.830;2022-10-31T02:26:20;12.80;99.90
23755;DHT22;12057;52.042;6.830;2022-10-31T02:31:33;12.70;99.90
23755;DHT22;12057;52.042;6.830;2022-10-31T02:36:45;12.60;99.90
23755;DHT22;12057;52.042;6.830;2022-10-31T02:47:19;12.50;99.90
23755;DHT22;12057;52.042;6.830;2022-10-31T02:52:24;12.60;99.90
23755;DHT22;12057;52.042;6.830;2022-10-31T02:57:30;12.60;99.90
23755;DHT22;12057;52.042;6.830;2022-10-31T03:08:02;12.60;99.90
23755;DHT22;12057;52.042;6.830;2022-10-31T03:13:41;12.60;99.90
23755;DHT22;12057;52.042;6.830;2022-10-31T03:24:20;12.70;99.90
23755;DHT22;12057;52.042;6.830;2022-10-31T03:29:25;12.70;99.90
23755;DHT22;12057;52.042;6.830;2022-10-31T03:34:29;12.70;99.90
23755;DHT22;12057;52.042;6.830;2022-10-31T03:39:30;12.70;99.90
23755;DHT22;12057;52.042;6.830;2022-10-31T03:44:33;12.70;99.90
23755;DHT22;12057;52.042;6.830;2022-10-31T03:49:35;12.70;99.90
23755;DHT22;12057;52.042;6.830;2022-10-31T03:54:45;12.70;99.90
23755;DHT22;12057;52.042;6.830;2022-10-31T04:00:06;12.70;99.90
23755;DHT22;12057;52.042;6.830;2022-10-31T04:05:07;12.70;99.90
23755;DHT22;12057;52.042;6.830;2022-10-31T04:10:11;12.70;99.90
23755;DHT22;12057;52.042;6.830;2022-10-31T04:15:13;12.60;99.90
23755;DHT22;12057;52.042;6.830;2022-10-31T04:20:18;12.50;99.90
23755;DHT22;12057;52.042;6.830;2022-10-31T04:25:18;12.50;99.90
23755;DHT22;12057;52.042;6.830;2022-10-31T04:30:20;12.40;99.90
23755;DHT22;12057;52.042;6.830;2022-10-31T04:35:21;12.30;99.90
23755;DHT22;12057;52.042;6.830;2022-10-31T04:40:21;12.20;99.90
23755;DHT22;12057;52.042;6.830;2022-10-31T04:45:22;12.10;99.90
23755;DHT22;12057;52.042;6.830;2022-10-31T04:50:23;12.00;99.90
23755;DHT22;12057;52.042;6.830;2022-10-31T04:55:24;12.00;99.90
23755;DHT22;12057;52.042;6.830;2022-10-31T05:00:24;12.00;99.90
23755;DHT22;12057;52.042;6.830;2022-10-31T05:05:30;12.00;99.90
23755;DHT22;12057;52.042;6.830;2022-10-31T05:10:31;12.00;99.90
23755;DHT22;12057;52.042;6.830;2022-10-31T05:15:32;11.90;99.90
23755;DHT22;12057;52.042;6.830;2022-10-31T05:20:33;11.80;99.90
23755;DHT22;12057;52.042;6.830;2022-10-31T05:25:34;11.70;99.90
23755;DHT22;12057;52.042;6.830;2022-10-31T05:30:35;11.60;99.90
23755;DHT22;12057;52.042;6.830;2022-10-31T05:35:36;11.60;99.90
23755;DHT22;12057;52.042;6.830;2022-10-31T05:40:37;11.50;99.90
23755;DHT22;12057;52.042;6.830;2022-10-31T05:45:37;11.40;99.90
23755;DHT22;12057;52.042;6.830;2022-10-31T05:50:38;11.40;99.90
23755;DHT22;12057;52.042;6.830;2022-10-31T05:55:39;11.40;99.90
23755;DHT22;12057;52.042;6.830;2022-10-31T06:00:41;11.40;99.90
23755;DHT22;12057;52.042;6.830;2022-10-31T06:05:41;11.40;99.90
23755;DHT22;12057;52.042;6.830;2022-10-31T06:10:42;11.40;99.90
23755;DHT22;12057;52.042;6.830;2022-10-31T06:15:44;11.30;99.90
23755;DHT22;12057;52.042;6.830;2022-10-31T06:20:45;11.30;99.90
23755;DHT22;12057;52.042;6.830;2022-10-31T06:25:52;11.20;99.90
23755;DHT22;12057;52.042;6.830;2022-10-31T06:30:52;11.20;99.90
23755;DHT22;12057;52.042;6.830;2022-10-31T06:35:53;11.20;99.90
23755;DHT22;12057;52.042;6.830;2022-10-31T06:40:54;11.20;99.90
23755;DHT22;12057;52.042;6.830;2022-10-31T06:45:55;11.10;99.90
23755;DHT22;12057;52.042;6.830;2022-10-31T06:51:00;11.20;99.90
23755;DHT22;12057;52.042;6.830;2022-10-31T06:56:01;11.10;99.90
23755;DHT22;12057;52.042;6.830;2022-10-31T07:01:01;11.20;99.90
23755;DHT22;12057;52.042;6.830;2022-10-31T07:06:02;11.10;99.90
23755;DHT22;12057;52.042;6.830;2022-10-31T07:11:03;11.20;99.90
23755;DHT22;12057;52.042;6.830;2022-10-31T07:16:05;11.20;99.90
23755;DHT22;12057;52.042;6.830;2022-10-31T07:21:12;11.20;99.90
23755;DHT22;12057;52.042;6.830;2022-10-31T07:26:13;11.20;99.90
23755;DHT22;12057;52.042;6.830;2022-10-31T07:31:13;11.20;99.90
23755;DHT22;12057;52.042;6.830;2022-10-31T07:36:14;11.20;99.90
23755;DHT22;12057;52.042;6.830;2022-10-31T07:41:16;11.30;99.90
23755;DHT22;12057;52.042;6.830;2022-10-31T07:46:16;11.40;99.90
23755;DHT22;12057;52.042;6.830;2022-10-31T07:51:17;11.40;99.90
23755;DHT22;12057;52.042;6.830;2022-10-31T07:56:18;11.40;99.90
23755;DHT22;12057;52.042;6.830;2022-10-31T08:01:19;11.60;99.90
23755;DHT22;12057;52.042;6.830;2022-10-31T08:06:19;11.80;99.90
23755;DHT22;12057;52.042;6.830;2022-10-31T08:11:20;12.00;99.90
23755;DHT22;12057;52.042;6.830;2022-10-31T08:16:21;12.20;99.90
23755;DHT22;12057;52.042;6.830;2022-10-31T08:21:22;12.50;99.90
23755;DHT22;12057;52.042;6.830;2022-10-31T08:26:23;12.70;99.90
23755;DHT22;12057;52.042;6.830;2022-10-31T08:31:23;12.90;99.90
23755;DHT22;12057;52.042;6.830;2022-10-31T08:36:27;13.10;99.90
23755;DHT22;12057;52.042;6.830;2022-10-31T08:41:29;13.40;99.90
23755;DHT22;12057;52.042;6.830;2022-10-31T08:52:29;13.90;99.90
23755;DHT22;12057;52.042;6.830;2022-10-31T08:57:30;14.10;99.90
23755;DHT22;12057;52.042;6.830;2022-10-31T09:02:31;14.20;99.90
23755;DHT22;12057;52.042;6.830;2022-10-31T09:07:31;14.50;99.90
23755;DHT22;12057;52.042;6.830;2022-10-31T09:12:32;14.80;99.90
23755;DHT22;12057;52.042;6.830;2022-10-31T09:17:33;15.20;99.90
23755;DHT22;12057;52.042;6.830;2022-10-31T09:22:34;15.40;99.90
23755;DHT22;12057;52.042;6.830;2022-10-31T09:27:35;15.70;99.90
23755;DHT22;12057;52.042;6.830;2022-10-31T09:32:35;15.90;99.90
23755;DHT22;12057;52.042;6.830;2022-10-31T09:37:36;16.10;99.90
23755;DHT22;12057;52.042;6.830;2022-10-31T09:43:00;16.30;99.90
23755;DHT22;12057;52.042;6.830;2022-10-31T09:58:54;16.80;99.90
23755;DHT22;12057;52.042;6.830;2022-10-31T10:04:03;17.00;99.90
23755;DHT22;12057;52.042;6.830;2022-10-31T10:09:06;16.90;99.90
23755;DHT22;12057;52.042;6.830;2022-10-31T10:29:41;17.10;99.90
23755;DHT22;12057;52.042;6.830;2022-10-31T10:34:49;17.00;99.90
23755;DHT22;12057;52.042;6.830;2022-10-31T10:40:28;16.90;99.90
23755;DHT22;12057;52.042;6.830;2022-10-31T10:45:22;16.90;99.90
23755;DHT22;12057;52.042;6.830;2022-10-31T10:50:46;17.00;99.90
23755;DHT22;12057;52.042;6.830;2022-10-31T11:00:56;16.90;99.90
23755;DHT22;12057;52.042;6.830;2022-10-31T11:05:57;17.10;99.90
23755;DHT22;12057;52.042;6.830;2022-10-31T11:11:03;17.20;99.90
23755;DHT22;12057;52.042;6.830;2022-10-31T11:16:27;17.20;99.90
23755;DHT22;12057;52.042;6.830;2022-10-31T11:21:29;17.20;99.90
23755;DHT22;12057;52.042;6.830;2022-10-31T11:26:33;17.20;99.90
23755;DHT22;12057;52.042;6.830;2022-10-31T11:31:35;17.30;99.90
23755;DHT22;12057;52.042;6.830;2022-10-31T11:36:38;17.30;99.90
23755;DHT22;12057;52.042;6.830;2022-10-31T11:41:40;17.30;99.90
23755;DHT22;12057;52.042;6.830;2022-10-31T11:46:59;17.30;99.90
23755;DHT22;12057;52.042;6.830;2022-10-31T12:02:29;17.70;99.90
23755;DHT22;12057;52.042;6.830;2022-10-31T12:07:31;17.80;99.90
23755;DHT22;12057;52.042;6.830;2022-10-31T12:34:18;17.60;99.90
23755;DHT22;12057;52.042;6.830;2022-10-31T13:00:47;17.50;99.90
23755;DHT22;12057;52.042;6.830;2022-10-31T13:05:53;17.40;99.90
23755;DHT22;12057;52.042;6.830;2022-10-31T13:11:15;17.50;99.90
23755;DHT22;12057;52.042;6.830;2022-10-31T13:16:21;17.50;99.90
23755;DHT22;12057;52.042;6.830;2022-10-31T13:21:33;17.50;99.90
23755;DHT22;12057;52.042;6.830;2022-10-31T13:26:40;17.50;99.90
23755;DHT22;12057;52.042;6.830;2022-10-31T13:31:43;17.50;99.90
23755;DHT22;12057;52.042;6.830;2022-10-31T13:42:52;17.50;99.90
23755;DHT22;12057;52.042;6.830;2022-10-31T13:53:35;17.40;99.90
23755;DHT22;12057;52.042;6.830;2022-10-31T13:58:36;17.30;99.90
23755;DHT22;12057;52.042;6.830;2022-10-31T14:03:39;17.40;99.90
23755;DHT22;12057;52.042;6.830;2022-10-31T14:08:50;17.40;99.90
23755;DHT22;12057;52.042;6.830;2022-10-31T14:13:51;17.40;99.90
23755;DHT22;12057;52.042;6.830;2022-10-31T14:19:05;17.30;99.90
23755;DHT22;12057;52.042;6.830;2022-10-31T14:24:15;17.30;99.90
23755;DHT22;12057;52.042;6.830;2022-10-31T14:29:32;17.20;99.90
23755;DHT22;12057;52.042;6.830;2022-10-31T14:34:35;17.10;99.90
23755;DHT22;12057;52.042;6.830;2022-10-31T14:50:53;17.10;99.90
23755;DHT22;12057;52.042;6.830;2022-10-31T14:55:56;17.10;99.90
23755;DHT22;12057;52.042;6.830;2022-10-31T15:00:57;17.10;99.90
23755;DHT22;12057;52.042;6.830;2022-10-31T15:06:02;17.00;99.90
23755;DHT22;12057;52.042;6.830;2022-10-31T15:11:18;17.00;99.90
23755;DHT22;12057;52.042;6.830;2022-10-31T15:16:27;17.00;99.90
23755;DHT22;12057;52.042;6.830;2022-10-31T15:21:29;16.90;99.90
23755;DHT22;12057;52.042;6.830;2022-10-31T15:26:38;16.80;99.90
23755;DHT22;12057;52.042;6.830;2022-10-31T15:31:50;16.80;99.90
23755;DHT22;12057;52.042;6.830;2022-10-31T15:36:52;16.80;99.90
23755;DHT22;12057;52.042;6.830;2022-10-31T15:41:57;16.80;99.90
23755;DHT22;12057;52.042;6.830;2022-10-31T15:47:05;16.80;99.90
23755;DHT22;12057;52.042;6.830;2022-10-31T15:52:38;16.70;99.90
23755;DHT22;12057;52.042;6.830;2022-10-31T15:58:20;16.70;99.90
23755;DHT22;12057;52.042;6.830;2022-10-31T16:03:25;16.60;99.90
23755;DHT22;12057;52.042;6.830;2022-10-31T16:13:33;16.60;99.90
23755;DHT22;12057;52.042;6.830;2022-10-31T16:18:36;16.50;99.90
23755;DHT22;12057;52.042;6.830;2022-10-31T16:23:43;16.50;99.90
23755;DHT22;12057;52.042;6.830;2022-10-31T16:28:53;16.50;99.90
23755;DHT22;12057;52.042;6.830;2022-10-31T16:34:15;16.50;99.90
23755;DHT22;12057;52.042;6.830;2022-10-31T16:39:17;16.40;99.90
23755;DHT22;12057;52.042;6.830;2022-10-31T16:44:25;16.40;99.90
23755;DHT22;12057;52.042;6.830;2022-10-31T16:49:26;16.40;99.90
23755;DHT22;12057;52.042;6.830;2022-10-31T16:54:29;16.40;99.90
23755;DHT22;12057;52.042;6.830;2022-10-31T16:59:30;16.30;99.90
23755;DHT22;12057;52.042;6.830;2022-10-31T17:04:32;16.30;99.90
23755;DHT22;12057;52.042;6.830;2022-10-31T17:09:32;16.30;99.90
23755;DHT22;12057;52.042;6.830;2022-10-31T17:14:34;16.30;99.90
23755;DHT22;12057;52.042;6.830;2022-10-31T17:19:35;16.20;99.90
23755;DHT22;12057;52.042;6.830;2022-10-31T17:24:35;16.20;99.90
23755;DHT22;12057;52.042;6.830;2022-10-31T17:29:36;16.20;99.90
23755;DHT22;12057;52.042;6.830;2022-10-31T17:34:37;16.30;99.90
23755;DHT22;12057;52.042;6.830;2022-10-31T17:39:38;16.30;99.90
23755;DHT22;12057;52.042;6.830;2022-10-31T17:44:38;16.30;99.90
23755;DHT22;12057;52.042;6.830;2022-10-31T17:49:39;16.40;99.90
23755;DHT22;12057;52.042;6.830;2022-10-31T17:54:40;16.30;99.90
23755;DHT22;12057;52.042;6.830;2022-10-31T17:59:41;16.40;99.90
23755;DHT22;12057;52.042;6.830;2022-10-31T18:04:42;16.40;99.90
23755;DHT22;12057;52.042;6.830;2022-10-31T18:09:45;16.40;99.90
23755;DHT22;12057;52.042;6.830;2022-10-31T18:14:46;16.40;99.90
23755;DHT22;12057;52.042;6.830;2022-10-31T18:19:46;16.40;99.90
23755;DHT22;12057;52.042;6.830;2022-10-31T18:24:47;16.40;99.90
23755;DHT22;12057;52.042;6.830;2022-10-31T18:29:48;16.40;99.90
23755;DHT22;12057;52.042;6.830;2022-10-31T18:34:49;16.50;99.90
23755;DHT22;12057;52.042;6.830;2022-10-31T18:39:51;16.40;99.90
23755;DHT22;12057;52.042;6.830;2022-10-31T18:44:51;16.40;99.90
23755;DHT22;12057;52.042;6.830;2022-10-31T18:49:52;16.40;99.90
23755;DHT22;12057;52.042;6.830;2022-10-31T18:54:53;16.30;99.90
23755;DHT22;12057;52.042;6.830;2022-10-31T18:59:54;16.30;99.90
23755;DHT22;12057;52.042;6.830;2022-10-31T19:04:54;16.30;99.90
23755;DHT22;12057;52.042;6.830;2022-10-31T19:09:55;16.30;99.90
23755;DHT22;12057;52.042;6.830;2022-10-31T19:14:56;16.30;99.90
23755;DHT22;12057;52.042;6.830;2022-10-31T19:19:57;16.30;99.90
23755;DHT22;12057;52.042;6.830;2022-10-31T19:24:58;16.20;99.90
23755;DHT22;12057;52.042;6.830;2022-10-31T19:29:58;16.10;99.90
23755;DHT22;12057;52.042;6.830;2022-10-31T19:35:00;16.10;99.90
23755;DHT22;12057;52.042;6.830;2022-10-31T19:40:04;16.10;99.90
23755;DHT22;12057;52.042;6.830;2022-10-31T19:45:05;16.00;99.90
23755;DHT22;12057;52.042;6.830;2022-10-31T19:50:07;15.90;99.90
23755;DHT22;12057;52.042;6.830;2022-10-31T19:55:08;15.90;99.90
23755;DHT22;12057;52.042;6.830;2022-10-31T20:00:09;15.80;99.90
23755;DHT22;12057;52.042;6.830;2022-10-31T20:05:10;15.70;99.90
23755;DHT22;12057;52.042;6.830;2022-10-31T20:10:11;15.70;99.90
23755;DHT22;12057;52.042;6.830;2022-10-31T20:15:12;15.60;99.90
23755;DHT22;12057;52.042;6.830;2022-10-31T20:20:13;15.60;99.90
23755;DHT22;12057;52.042;6.830;2022-10-31T20:25:13;15.60;99.90
23755;DHT22;12057;52.042;6.830;2022-10-31T20:30:14;15.50;99.90
23755;DHT22;12057;52.042;6.830;2022-10-31T20:35:16;15.50;99.90
23755;DHT22;12057;52.042;6.830;2022-10-31T20:40:17;15.50;99.90
23755;DHT22;12057;52.042;6.830;2022-10-31T20:45:17;15.60;99.90
23755;DHT22;12057;52.042;6.830;2022-10-31T20:50:18;15.50;99.90
23755;DHT22;12057;52.042;6.830;2022-10-31T20:55:19;15.60;99.90
23755;DHT22;12057;52.042;6.830;2022-10-31T21:00:20;15.60;99.90
23755;DHT22;12057;52.042;6.830;2022-10-31T21:05:21;15.60;99.90
23755;DHT22;12057;52.042;6.830;2022-10-31T21:10:22;15.50;99.90
23755;DHT22;12057;52.042;6.830;2022-10-31T21:15:22;15.50;99.90
23755;DHT22;12057;52.042;6.830;2022-10-31T21:20:23;15.50;99.90
23755;DHT22;12057;52.042;6.830;2022-10-31T21:25:24;15.40;99.90
23755;DHT22;12057;52.042;6.830;2022-10-31T21:30:25;15.40;99.90
23755;DHT22;12057;52.042;6.830;2022-10-31T21:35:26;15.30;99.90
23755;DHT22;12057;52.042;6.830;2022-10-31T21:40:27;15.20;99.90
23755;DHT22;12057;52.042;6.830;2022-10-31T21:45:28;15.20;99.90
23755;DHT22;12057;52.042;6.830;2022-10-31T21:50:29;15.20;99.90
23755;DHT22;12057;52.042;6.830;2022-10-31T21:55:29;15.10;99.90
23755;DHT22;12057;52.042;6.830;2022-10-31T22:00:30;15.10;99.90
23755;DHT22;12057;52.042;6.830;2022-10-31T22:05:33;15.10;99.90
23755;DHT22;12057;52.042;6.830;2022-10-31T22:10:34;15.10;99.90
23755;DHT22;12057;52.042;6.830;2022-10-31T22:15:35;15.00;99.90
23755;DHT22;12057;52.042;6.830;2022-10-31T22:20:35;15.00;99.90
23755;DHT22;12057;52.042;6.830;2022-10-31T22:25:36;14.90;99.90
23755;DHT22;12057;52.042;6.830;2022-10-31T22:30:37;15.00;99.90
23755;DHT22;12057;52.042;6.830;2022-10-31T22:35:38;14.90;99.90
23755;DHT22;12057;52.042;6.830;2022-10-31T22:40:39;14.90;99.90
23755;DHT22;12057;52.042;6.830;2022-10-31T22:45:39;14.90;99.90
23755;DHT22;12057;52.042;6.830;2022-10-31T22:50:40;14.90;99.90
23755;DHT22;12057;52.042;6.830;2022-10-31T22:55:41;14.90;99.90
23755;DHT22;12057;52.042;6.830;2022-10-31T23:00:42;14.90;99.90
23755;DHT22;12057;52.042;6.830;2022-10-31T23:05:42;14.90;99.90
23755;DHT22;12057;52.042;6.830;2022-10-31T23:10:43;14.90;99.90
23755;DHT22;12057;52.042;6.830;2022-10-31T23:15:44;14.90;99.90
23755;DHT22;12057;52.042;6.830;2022-10-31T23:20:52;14.90;99.90
23755;DHT22;12057;52.042;6.830;2022-10-31T23:25:53;14.90;99.90
23755;DHT22;12057;52.042;6.830;2022-10-31T23:31:13;14.90;99.90
23755;DHT22;12057;52.042;6.830;2022-10-31T23:36:14;14.90;99.90
23755;DHT22;12057;52.042;6.830;2022-10-31T23:41:14;14.90;99.90
23755;DHT22;12057;52.042;6.830;2022-10-31T23:46:15;14.90;99.90
23755;DHT22;12057;52.042;6.830;2022-10-31T23:51:16;14.90;99.90
23755;DHT22;12057;52.042;6.830;2022-10-31T23:56:17;14.90;99.90
